createdAt,value
2022-08-09T00:00:06.058Z,14.25
2022-08-09T00:02:34.676Z,13.30
2022-08-09T00:06:16.302Z,14.55
2022-08-09T00:07:52.388Z,13.77
2022-08-09T00:10:24.367Z,12.98
2022-08-09T00:12:53.345Z,13.32
2022-08-09T00:15:26.799Z,19.65
2022-08-09T00:18:11.185Z,16.80
2022-08-09T00:20:42.293Z,15.35
2022-08-09T00:23:55.775Z,14.13
2022-08-09T00:26:04.922Z,13.93
2022-08-09T00:28:34.749Z,13.98
2022-08-09T00:31:30.432Z,16.13
2022-08-09T00:33:53.978Z,13.90
2022-08-09T00:36:29.514Z,15.68
2022-08-09T00:38:58.892Z,13.60
2022-08-09T00:44:14.425Z,14.15
2022-08-09T00:44:24.851Z,14.77
2022-08-09T00:47:05.133Z,14.00
2022-08-09T00:49:34.919Z,14.32
2022-08-09T00:52:15.985Z,14.60
2022-08-09T00:54:46.291Z,14.98
2022-08-09T00:57:13.831Z,14.05
2022-08-09T00:59:52.436Z,14.38
2022-08-09T01:02:26.890Z,14.27
2022-08-09T01:05:22.399Z,14.02
2022-08-09T01:08:27.666Z,18.75
2022-08-09T01:10:58.170Z,16.83
2022-08-09T01:13:42.013Z,16.92
2022-08-09T01:16:30.443Z,16.00
2022-08-09T01:19:04.800Z,15.25
2022-08-09T01:21:51.294Z,15.50
2022-08-09T01:24:53.486Z,16.33
2022-08-09T01:27:23.884Z,15.13
2022-08-09T01:29:55.537Z,15.45
2022-08-09T01:32:38.972Z,15.15
2022-08-09T01:35:38.770Z,15.45
2022-08-09T01:38:28.205Z,16.95
2022-08-09T01:41:05.199Z,14.45
2022-08-09T01:43:50.183Z,15.27
2022-08-09T01:46:32.413Z,16.13
2022-08-09T01:49:10.195Z,17.90
2022-08-09T01:51:53.035Z,15.60
2022-08-09T01:54:25.841Z,16.63
2022-08-09T01:56:55.294Z,15.77
2022-08-09T01:59:24.514Z,15.93
2022-08-09T02:02:01.216Z,16.50
2022-08-09T02:04:30.300Z,16.25
2022-08-09T02:07:18.120Z,15.77
2022-08-09T02:10:10.405Z,16.42
2022-08-09T02:12:39.340Z,16.55
2022-08-09T02:15:11.987Z,15.40
2022-08-09T02:18:00.908Z,16.05
2022-08-09T02:20:36.610Z,16.30
2022-08-09T02:23:09.051Z,17.23
2022-08-09T02:25:42.182Z,16.27
2022-08-09T02:28:38.981Z,16.20
2022-08-09T02:31:10.702Z,15.75
2022-08-09T02:34:07.514Z,15.48
2022-08-09T02:36:32.357Z,15.70
2022-08-09T02:39:03.946Z,15.65
2022-08-09T02:41:38.617Z,15.35
2022-08-09T02:44:13.621Z,15.38
2022-08-09T02:46:58.646Z,15.80
2022-08-09T02:49:38.890Z,14.57
2022-08-09T02:52:13.129Z,14.07
2022-08-09T02:54:53.870Z,13.38
2022-08-09T02:57:23.784Z,12.80
2022-08-09T03:00:20.766Z,13.02
2022-08-09T03:02:58.059Z,12.20
2022-08-09T03:05:27.051Z,11.75
2022-08-09T03:07:57.012Z,12.00
2022-08-09T03:10:25.884Z,11.32
2022-08-09T03:12:55.260Z,11.18
2022-08-09T03:15:23.987Z,11.27
2022-08-09T03:18:09.850Z,11.45
2022-08-09T03:20:38.519Z,11.48
2022-08-09T03:23:15.110Z,10.57
2022-08-09T03:26:03.016Z,10.85
2022-08-09T03:28:31.657Z,9.93
2022-08-09T03:31:10.203Z,10.18
2022-08-09T03:33:54.932Z,9.80
2022-08-09T03:36:27.860Z,10.55
2022-08-09T03:38:56.522Z,11.45
2022-08-09T03:41:30.087Z,13.07
2022-08-09T03:44:12.220Z,11.57
2022-08-09T03:46:39.682Z,11.07
2022-08-09T03:49:09.027Z,9.82
2022-08-09T03:51:57.485Z,9.93
2022-08-09T03:54:32.453Z,9.60
2022-08-09T03:57:04.425Z,10.05
2022-08-09T03:59:54.721Z,9.02
2022-08-09T04:02:28.488Z,9.73
2022-08-09T04:05:05.676Z,9.63
2022-08-09T04:07:52.776Z,9.10
2022-08-09T04:10:28.777Z,10.15
2022-08-09T04:13:01.073Z,9.80
2022-08-09T04:15:52.326Z,10.23
2022-08-09T04:18:21.268Z,10.02
2022-08-09T04:20:51.232Z,9.95
2022-08-09T04:23:24.437Z,10.70
2022-08-09T04:25:54.243Z,10.85
2022-08-09T04:28:34.121Z,9.70
2022-08-09T04:31:09.128Z,10.38
2022-08-09T04:33:47.357Z,9.90
2022-08-09T04:36:25.892Z,10.20
2022-08-09T04:38:54.243Z,10.90
2022-08-09T04:41:23.629Z,10.93
2022-08-09T04:44:05.066Z,11.07
2022-08-09T04:46:56.911Z,10.98
2022-08-09T04:49:30.127Z,12.02
2022-08-09T04:52:11.157Z,11.48
2022-08-09T04:54:38.823Z,11.90
2022-08-09T04:57:09.431Z,11.55
2022-08-09T04:59:39.795Z,11.40
2022-08-09T05:02:07.663Z,11.95
2022-08-09T05:04:36.792Z,11.82
2022-08-09T05:07:05.824Z,12.82
2022-08-09T05:09:45.339Z,11.68
2022-08-09T05:12:16.392Z,11.73
2022-08-09T05:14:43.942Z,11.68
2022-08-09T05:18:36.706Z,12.05
2022-08-09T05:20:01.131Z,12.35
2022-08-09T05:22:34.954Z,12.45
2022-08-09T05:25:17.376Z,11.35
2022-08-09T05:27:48.089Z,12.25
2022-08-09T05:30:17.732Z,12.10
2022-08-09T05:32:50.900Z,11.70
2022-08-09T05:35:18.901Z,11.85
2022-08-09T05:37:51.268Z,11.52
2022-08-09T05:40:19.760Z,11.48
2022-08-09T05:42:49.969Z,11.90
2022-08-09T05:45:20.381Z,12.18
2022-08-09T05:47:59.229Z,11.82
2022-08-09T05:50:49.098Z,13.10
2022-08-09T05:53:21.710Z,12.60
2022-08-09T05:56:05.823Z,13.48
2022-08-09T05:58:35.379Z,13.05
2022-08-09T06:01:04.468Z,12.60
2022-08-09T06:03:34.755Z,12.68
2022-08-09T06:06:22.370Z,13.02
2022-08-09T06:08:55.092Z,12.10
2022-08-09T06:11:41.014Z,12.45
2022-08-09T06:14:17.609Z,12.63
2022-08-09T06:16:52.355Z,11.55
2022-08-09T06:19:23.460Z,11.40
2022-08-09T06:21:58.257Z,11.65
2022-08-09T06:24:27.860Z,10.25
2022-08-09T06:26:56.613Z,10.50
2022-08-09T06:29:27.085Z,12.20
2022-08-09T06:32:17.196Z,11.35
2022-08-09T06:34:44.828Z,11.73
2022-08-09T06:37:13.944Z,12.73
2022-08-09T06:39:58.232Z,12.90
2022-08-09T06:42:28.392Z,11.95
2022-08-09T06:45:00.298Z,12.15
2022-08-09T06:47:41.899Z,12.30
2022-08-09T06:50:16.633Z,12.15
2022-08-09T06:52:48.730Z,12.40
2022-08-09T06:55:28.413Z,11.80
2022-08-09T06:58:05.887Z,11.65
2022-08-09T07:00:56.314Z,11.20
2022-08-09T07:03:29.061Z,12.13
2022-08-09T07:06:04.780Z,12.15
2022-08-09T07:08:39.671Z,12.40
2022-08-09T07:11:12.461Z,11.88
2022-08-09T07:13:45.562Z,12.00
2022-08-09T07:16:47.945Z,12.13
2022-08-09T07:19:23.377Z,12.02
2022-08-09T07:21:57.783Z,12.27
2022-08-09T07:24:32.792Z,12.93
2022-08-09T07:27:27.274Z,13.02
2022-08-09T07:30:06.118Z,12.60
2022-08-09T07:32:34.973Z,13.52
2022-08-09T07:35:11.815Z,14.43
2022-08-09T07:37:45.569Z,13.43
2022-08-09T07:40:18.558Z,13.40
2022-08-09T07:43:00.086Z,13.85
2022-08-09T07:45:41.044Z,13.60
2022-08-09T07:48:25.836Z,14.02
2022-08-09T07:51:10.327Z,13.73
2022-08-09T07:54:05.354Z,13.57
2022-08-09T07:56:45.157Z,13.65
2022-08-09T07:59:33.810Z,14.25
2022-08-09T08:02:09.071Z,14.30
2022-08-09T08:04:37.442Z,15.48
2022-08-09T08:07:15.394Z,16.25
2022-08-09T08:10:05.709Z,16.35
2022-08-09T08:12:43.827Z,16.48
2022-08-09T08:15:17.159Z,16.52
2022-08-09T08:17:54.719Z,15.73
2022-08-09T08:20:29.137Z,16.10
2022-08-09T08:23:03.486Z,18.80
2022-08-09T08:25:45.871Z,15.65
2022-08-09T08:28:17.951Z,16.48
2022-08-09T08:30:55.458Z,17.42
2022-08-09T08:33:24.704Z,17.10
2022-08-09T08:35:59.765Z,16.63
2022-08-09T08:38:29.775Z,17.17
2022-08-09T08:40:59.350Z,17.10
2022-08-09T08:43:28.033Z,17.20
2022-08-09T08:46:31.576Z,16.67
2022-08-09T08:48:51.162Z,16.17
2022-08-09T08:51:21.255Z,15.75
2022-08-09T08:54:04.400Z,16.17
2022-08-09T08:56:38.045Z,16.27
2022-08-09T08:59:19.720Z,16.67
2022-08-09T09:01:52.789Z,16.60
2022-08-09T09:04:37.748Z,16.35
2022-08-09T09:07:20.971Z,15.35
2022-08-09T09:10:02.269Z,15.35
2022-08-09T09:12:36.521Z,15.00
2022-08-09T09:15:06.485Z,14.95
2022-08-09T09:17:49.619Z,15.05
2022-08-09T09:20:25.875Z,14.70
2022-08-09T09:23:01.679Z,14.07
2022-08-09T09:26:03.840Z,15.50
2022-08-09T09:28:39.268Z,14.35
2022-08-09T09:32:03.415Z,13.32
2022-08-09T09:34:14.685Z,12.65
2022-08-09T09:36:51.010Z,12.90
2022-08-09T09:39:50.259Z,12.30
2022-08-09T09:42:30.903Z,13.13
2022-08-09T09:45:03.374Z,12.43
2022-08-09T09:47:32.499Z,13.27
2022-08-09T09:50:14.266Z,12.98
2022-08-09T09:52:56.332Z,12.00
2022-08-09T09:55:31.310Z,12.52
2022-08-09T09:58:18.739Z,12.80
2022-08-09T10:01:01.644Z,13.25
2022-08-09T10:03:39.717Z,12.68
2022-08-09T10:06:07.725Z,13.63
2022-08-09T10:08:54.245Z,13.38
2022-08-09T10:11:59.573Z,12.90
2022-08-09T10:14:31.858Z,13.10
2022-08-09T10:17:39.609Z,12.75
2022-08-09T10:20:00.712Z,12.30
2022-08-09T10:22:57.228Z,11.95
2022-08-09T10:25:34.927Z,12.52
2022-08-09T10:28:17.196Z,11.75
2022-08-09T10:34:08.422Z,11.00
2022-08-09T10:36:24.005Z,10.35
2022-08-09T10:39:00.286Z,10.48
2022-08-09T10:41:30.101Z,9.75
2022-08-09T10:44:01.999Z,10.27
2022-08-09T10:48:12.524Z,9.82
2022-08-09T10:50:05.875Z,10.18
2022-08-09T10:52:45.599Z,9.52
2022-08-09T10:55:25.746Z,9.60
2022-08-09T10:57:55.654Z,9.88
2022-08-09T11:00:29.288Z,9.90
2022-08-09T11:03:18.023Z,10.13
2022-08-09T11:06:16.227Z,10.55
2022-08-09T11:08:47.709Z,10.60
2022-08-09T11:11:22.008Z,10.18
2022-08-09T11:14:28.999Z,10.73
2022-08-09T11:17:01.205Z,10.05
2022-08-09T11:20:10.637Z,8.90
2022-08-09T11:22:46.079Z,8.25
2022-08-09T11:25:48.001Z,7.47
2022-08-09T11:29:00.518Z,6.93
2022-08-09T11:31:52.930Z,7.78
2022-08-09T11:34:31.798Z,7.25
2022-08-09T11:37:01.022Z,7.15
2022-08-09T11:39:33.759Z,6.65
2022-08-09T11:42:14.842Z,7.38
2022-08-09T11:44:45.894Z,7.32
2022-08-09T11:47:15.604Z,7.13
2022-08-09T11:50:56.927Z,7.55
2022-08-09T11:53:15.193Z,7.30
2022-08-09T11:56:03.007Z,7.30
2022-08-09T11:58:50.054Z,7.00
2022-08-09T12:02:15.926Z,6.45
2022-08-09T12:04:20.897Z,6.30
2022-08-09T12:07:08.217Z,6.85
2022-08-09T12:09:50.343Z,6.20
2022-08-09T12:12:29.226Z,6.13
2022-08-09T12:15:07.465Z,5.90
2022-08-09T12:17:42.252Z,6.00
2022-08-09T12:20:25.772Z,5.57
2022-08-09T12:23:04.701Z,5.40
2022-08-09T12:25:37.339Z,5.63
2022-08-09T12:29:10.435Z,5.80
2022-08-09T12:31:30.951Z,5.18
2022-08-09T12:34:17.369Z,5.90
2022-08-09T12:36:52.699Z,5.40
2022-08-09T12:39:30.463Z,6.10
2022-08-09T12:42:16.888Z,5.57
2022-08-09T12:44:52.274Z,5.78
2022-08-09T12:47:22.785Z,5.68
2022-08-09T12:50:24.137Z,5.63
2022-08-09T12:53:38.779Z,5.57
2022-08-09T12:56:43.409Z,6.13
2022-08-09T12:59:10.612Z,5.70
2022-08-09T13:02:05.258Z,5.72
2022-08-09T13:04:38.829Z,5.80
2022-08-09T13:07:19.685Z,5.43
2022-08-09T13:09:55.785Z,5.32
2022-08-09T13:13:11.253Z,5.30
2022-08-09T13:15:36.584Z,5.30
2022-08-09T13:18:17.265Z,4.90
2022-08-09T13:22:33.925Z,5.00
2022-08-09T13:24:06.723Z,4.60
2022-08-09T13:26:55.463Z,4.70
2022-08-09T13:30:03.230Z,5.10
2022-08-09T13:32:29.240Z,4.95
2022-08-09T13:35:06.626Z,4.70
2022-08-09T13:37:51.139Z,5.18
2022-08-09T13:41:55.681Z,5.00
2022-08-09T13:43:15.670Z,4.90
2022-08-09T13:46:44.375Z,5.38
2022-08-09T13:48:42.281Z,5.53
2022-08-09T13:51:12.782Z,4.80
2022-08-09T13:53:51.941Z,4.90
2022-08-09T13:56:43.173Z,4.90
2022-08-09T13:59:25.364Z,5.30
2022-08-09T14:02:07.673Z,5.15
2022-08-09T14:04:49.507Z,4.88
2022-08-09T14:07:41.981Z,4.57
2022-08-09T14:10:46.316Z,4.30
2022-08-09T14:13:12.111Z,4.30
2022-08-09T14:16:07.166Z,4.30
2022-08-09T14:18:51.723Z,4.50
2022-08-09T14:21:34.277Z,4.90
2022-08-09T14:24:18.299Z,5.20
2022-08-09T14:27:20.523Z,5.45
2022-08-09T14:30:35.651Z,5.30
2022-08-09T14:33:11.189Z,5.63
2022-08-09T14:35:52.838Z,5.50
2022-08-09T14:38:22.071Z,5.40
2022-08-09T14:43:53.738Z,5.75
2022-08-09T14:49:26.047Z,6.38
2022-08-09T14:52:05.533Z,6.03
2022-08-09T14:55:08.429Z,6.13
2022-08-09T14:57:52.582Z,5.68
2022-08-09T15:00:33.500Z,5.70
2022-08-09T16:02:56.923Z,5.35
2022-08-09T16:05:47.251Z,5.90
2022-08-09T16:08:36.290Z,5.57
2022-08-09T16:11:20.020Z,5.45
2022-08-09T16:14:05.136Z,5.43
2022-08-09T16:16:38.076Z,5.63
2022-08-09T16:19:15.077Z,5.70
2022-08-09T16:21:48.710Z,5.60
2022-08-09T16:24:32.879Z,5.50
2022-08-09T16:27:05.158Z,5.63
2022-08-09T16:29:38.032Z,6.18
2022-08-09T16:32:34.990Z,5.97
2022-08-09T16:35:39.208Z,6.05
2022-08-09T16:38:06.687Z,6.43
2022-08-09T16:40:42.558Z,6.30
2022-08-09T16:43:14.406Z,6.40
2022-08-09T16:45:45.948Z,7.20
2022-08-09T16:48:42.405Z,7.47
2022-08-09T16:51:23.532Z,7.25
2022-08-09T16:57:03.925Z,7.85
2022-08-09T16:59:35.850Z,7.90
2022-08-09T17:02:23.226Z,7.88
2022-08-09T17:04:55.613Z,8.65
2022-08-09T17:08:46.753Z,8.38
2022-08-09T17:10:22.845Z,8.40
2022-08-09T17:12:54.204Z,8.40
2022-08-09T17:15:59.338Z,8.40
2022-08-09T17:18:17.898Z,8.73
2022-08-09T17:20:57.742Z,8.95
2022-08-09T17:23:37.069Z,9.40
2022-08-09T17:26:29.427Z,10.88
2022-08-09T17:29:11.681Z,10.85
2022-08-09T17:31:53.056Z,10.57
2022-08-09T17:35:04.429Z,11.52
2022-08-09T17:37:19.247Z,10.93
2022-08-09T17:39:55.366Z,11.27
2022-08-09T17:42:48.453Z,10.48
2022-08-09T17:46:03.069Z,10.32
2022-08-09T17:48:33.292Z,9.02
2022-08-09T17:51:09.786Z,9.23
2022-08-09T17:53:53.436Z,8.38
2022-08-09T17:56:27.647Z,9.20
2022-08-09T17:59:09.057Z,9.02
2022-08-09T18:02:12.837Z,8.82
2022-08-09T18:04:54.291Z,9.18
2022-08-09T18:10:15.367Z,8.40
2022-08-09T18:13:54.303Z,8.93
2022-08-09T18:16:05.080Z,8.13
2022-08-09T18:18:43.261Z,7.82
2022-08-09T18:21:24.218Z,8.70
2022-08-09T18:24:12.672Z,7.97
2022-08-09T18:26:49.389Z,8.18
2022-08-09T18:30:38.192Z,8.20
2022-08-09T18:32:19.310Z,8.30
2022-08-09T18:37:48.940Z,8.23
2022-08-09T18:40:27.080Z,8.82
2022-08-09T18:46:45.944Z,8.02
2022-08-09T18:48:42.386Z,8.68
2022-08-09T18:51:13.359Z,8.57
2022-08-09T18:53:59.655Z,8.30
2022-08-09T18:56:41.895Z,13.75
2022-08-09T18:59:12.886Z,9.02
2022-08-09T19:02:06.619Z,8.82
2022-08-09T19:04:43.349Z,8.35
2022-08-09T19:07:17.626Z,8.73
2022-08-09T19:10:14.121Z,8.68
2022-08-09T19:12:37.305Z,9.02
2022-08-09T19:15:32.930Z,9.85
2022-08-09T19:18:06.740Z,9.13
2022-08-09T19:20:58.506Z,9.57
2022-08-09T19:24:38.055Z,8.82
2022-08-09T19:26:42.508Z,9.43
2022-08-09T19:29:21.643Z,9.35
2022-08-09T19:31:59.719Z,9.30
2022-08-09T19:34:30.157Z,9.32
2022-08-09T19:37:00.278Z,9.40
2022-08-09T19:39:43.569Z,9.95
2022-08-09T19:44:59.749Z,9.90
2022-08-09T19:47:53.132Z,9.73
2022-08-09T19:50:50.452Z,9.98
2022-08-09T19:53:30.527Z,9.73
2022-08-09T19:56:29.106Z,9.57
2022-08-09T19:59:18.298Z,10.45
2022-08-09T20:04:07.140Z,10.10
2022-08-09T20:05:46.824Z,9.70
2022-08-09T20:08:34.801Z,9.95
2022-08-09T20:11:21.448Z,9.50
2022-08-09T20:13:59.919Z,10.23
2022-08-09T20:19:48.668Z,9.95
2022-08-09T20:22:09.885Z,9.85
2022-08-09T20:24:40.844Z,10.52
2022-08-09T20:27:17.743Z,9.75
2022-08-09T20:29:46.346Z,10.07
2022-08-09T20:32:33.270Z,9.75
2022-08-09T20:35:09.204Z,10.43
2022-08-09T20:38:22.043Z,10.07
2022-08-09T20:40:32.240Z,10.27
2022-08-09T20:46:33.706Z,11.73
2022-08-09T20:49:06.722Z,10.98
2022-08-09T20:51:55.222Z,10.75
2022-08-09T20:54:26.279Z,12.02
2022-08-09T20:57:32.339Z,12.27
2022-08-09T21:00:20.962Z,13.35
2022-08-09T21:02:51.717Z,13.95
2022-08-09T21:05:59.523Z,12.45
2022-08-09T21:08:36.570Z,14.50
2022-08-09T21:14:00.462Z,14.45
2022-08-09T21:16:38.138Z,11.98
2022-08-09T21:20:17.591Z,11.10
2022-08-09T21:22:04.676Z,10.93
2022-08-09T21:25:12.708Z,11.38
2022-08-09T21:27:52.094Z,11.30
2022-08-09T21:30:22.497Z,11.38
2022-08-09T21:32:53.587Z,10.60
2022-08-09T21:35:22.034Z,10.90
2022-08-09T21:37:59.499Z,10.75
2022-08-09T21:40:32.620Z,10.98
2022-08-09T21:43:01.461Z,10.98
2022-08-09T21:45:29.655Z,10.68
2022-08-09T21:47:59.220Z,11.10
2022-08-09T21:50:36.061Z,10.98
2022-08-09T21:53:24.069Z,10.63
2022-08-09T21:55:56.549Z,10.65
2022-08-09T21:58:31.185Z,11.25
2022-08-09T22:00:59.384Z,11.90
2022-08-09T22:03:28.014Z,11.32
2022-08-09T22:05:57.896Z,11.20
2022-08-09T22:08:27.772Z,10.57
2022-08-09T22:11:49.389Z,10.27
2022-08-09T22:13:46.118Z,11.32
2022-08-09T22:16:13.560Z,11.05
2022-08-09T22:18:52.148Z,10.73
2022-08-09T22:21:44.629Z,10.65
2022-08-09T22:24:17.133Z,11.77
2022-08-09T22:26:51.670Z,11.75
2022-08-09T22:29:26.794Z,11.80
2022-08-09T22:32:00.056Z,11.85
2022-08-09T22:34:28.986Z,11.65
2022-08-09T22:36:57.545Z,11.52
2022-08-09T22:39:55.742Z,11.95
2022-08-09T22:42:21.402Z,11.52
2022-08-09T22:48:04.654Z,12.30
2022-08-09T22:48:15.524Z,12.68
2022-08-09T22:50:32.793Z,11.85
2022-08-09T22:53:03.756Z,11.98
2022-08-09T22:56:06.140Z,11.48
2022-08-09T22:58:32.542Z,11.23
2022-08-09T23:01:05.897Z,12.23
2022-08-09T23:04:05.287Z,11.93
2022-08-09T23:06:30.318Z,11.85
2022-08-09T23:09:07.985Z,12.52
2022-08-09T23:11:37.306Z,12.60
2022-08-09T23:14:17.365Z,12.73
2022-08-09T23:16:45.564Z,13.38
2022-08-09T23:19:13.207Z,12.95
2022-08-09T23:21:41.866Z,12.05
2022-08-09T23:24:09.601Z,12.20
2022-08-09T23:26:39.111Z,12.68
2022-08-09T23:29:08.033Z,12.65
2022-08-09T23:31:35.639Z,12.45
2022-08-09T23:34:04.360Z,12.20
2022-08-09T23:36:33.039Z,12.18
2022-08-09T23:39:02.082Z,12.35
2022-08-09T23:41:30.024Z,11.32
2022-08-09T23:44:01.068Z,12.00
2022-08-09T23:46:29.886Z,14.10
2022-08-09T23:48:58.517Z,13.55
2022-08-09T23:51:26.471Z,13.35
2022-08-09T23:53:55.457Z,12.93
2022-08-09T23:56:53.465Z,12.75
2022-08-09T23:59:18.177Z,13.57
